createdAt,value
2018-06-15T00:00:06.025Z,9.40
2018-06-15T00:02:35.504Z,8.50
2018-06-15T00:05:04.107Z,7.20
2018-06-15T00:07:32.714Z,6.17
2018-06-15T00:10:01.728Z,7.30
2018-06-15T00:12:30.419Z,8.30
2018-06-15T00:14:59.011Z,7.57
2018-06-15T00:17:27.636Z,9.57
2018-06-15T00:19:56.244Z,8.90
2018-06-15T00:22:24.937Z,7.20
2018-06-15T00:27:58.717Z,7.50
2018-06-15T00:30:27.360Z,7.17
2018-06-15T00:32:55.920Z,6.70
2018-06-15T00:35:24.459Z,7.30
2018-06-15T00:37:53.278Z,7.50
2018-06-15T00:40:21.848Z,6.50
2018-06-15T00:42:50.366Z,6.93
2018-06-15T00:45:18.915Z,5.80
2018-06-15T00:47:47.505Z,7.60
2018-06-15T00:50:16.102Z,6.67
2018-06-15T00:52:44.928Z,9.57
2018-06-15T00:55:13.530Z,7.10
2018-06-15T00:57:46.261Z,6.97
2018-06-15T01:00:15.157Z,8.50
2018-06-15T01:02:43.782Z,8.40
2018-06-15T01:05:12.449Z,9.70
2018-06-15T01:07:41.094Z,8.17
2018-06-15T01:10:09.803Z,8.17
2018-06-15T01:12:38.445Z,7.80
2018-06-15T01:15:07.217Z,10.97
2018-06-15T01:17:36.165Z,7.30
2018-06-15T01:20:04.781Z,7.77
2018-06-15T01:22:33.485Z,9.50
2018-06-15T01:25:02.063Z,6.50
2018-06-15T01:27:30.675Z,9.83
2018-06-15T01:29:59.331Z,6.90
2018-06-15T01:32:27.965Z,6.67
2018-06-15T01:34:56.493Z,8.87
2018-06-15T01:37:25.032Z,10.63
2018-06-15T01:39:53.553Z,7.23
2018-06-15T01:42:22.123Z,10.20
2018-06-15T01:44:50.761Z,8.00
2018-06-15T01:47:19.290Z,7.77
2018-06-15T01:49:47.854Z,7.10
2018-06-15T01:52:16.592Z,8.60
2018-06-15T01:54:45.267Z,7.80
2018-06-15T01:57:13.777Z,9.27
2018-06-15T01:59:42.386Z,7.23
2018-06-15T02:02:10.947Z,6.60
2018-06-15T02:04:39.546Z,7.10
2018-06-15T02:07:08.135Z,7.60
2018-06-15T02:09:36.723Z,8.63
2018-06-15T02:12:05.467Z,8.13
2018-06-15T02:14:34.059Z,7.50
2018-06-15T02:17:02.660Z,8.50
2018-06-15T02:19:31.272Z,9.73
2018-06-15T02:21:59.844Z,9.40
2018-06-15T02:24:28.498Z,11.30
2018-06-15T02:26:57.081Z,13.53
2018-06-15T02:29:25.711Z,9.30
2018-06-15T02:31:54.284Z,10.13
2018-06-15T02:34:22.891Z,8.70
2018-06-15T02:36:51.140Z,9.30
2018-06-15T02:39:19.799Z,8.00
2018-06-15T02:41:48.416Z,10.10
2018-06-15T02:44:17.073Z,10.17
2018-06-15T02:46:45.737Z,11.63
2018-06-15T02:49:14.472Z,8.63
2018-06-15T02:51:43.094Z,8.20
2018-06-15T02:54:11.705Z,10.17
2018-06-15T02:56:40.378Z,10.20
2018-06-15T02:59:09.025Z,11.70
2018-06-15T03:01:37.660Z,9.90
2018-06-15T03:04:06.269Z,11.60
2018-06-15T03:06:41.210Z,8.53
2018-06-15T03:09:11.491Z,11.00
2018-06-15T03:11:41.301Z,11.97
2018-06-15T03:14:11.507Z,9.00
2018-06-15T03:16:42.175Z,10.43
2018-06-15T03:19:10.882Z,9.30
2018-06-15T03:21:39.666Z,9.40
2018-06-15T03:24:08.196Z,12.80
2018-06-15T03:26:36.718Z,7.60
2018-06-15T03:29:05.334Z,8.60
2018-06-15T03:31:33.883Z,8.47
2018-06-15T03:34:02.407Z,8.80
2018-06-15T03:36:32.935Z,9.37
2018-06-15T03:39:01.708Z,9.53
2018-06-15T03:41:30.220Z,10.43
2018-06-15T03:43:58.831Z,9.93
2018-06-15T03:46:27.460Z,9.27
2018-06-15T03:48:56.032Z,7.90
2018-06-15T03:51:24.614Z,8.47
2018-06-15T03:53:53.224Z,8.53
2018-06-15T03:56:21.897Z,9.80
2018-06-15T03:58:50.568Z,8.87
2018-06-15T04:01:19.413Z,11.33
2018-06-15T04:03:48.076Z,9.67
2018-06-15T04:06:16.682Z,10.57
2018-06-15T04:08:45.304Z,8.00
2018-06-15T04:11:13.909Z,10.10
2018-06-15T04:13:42.462Z,8.80
2018-06-15T04:16:11.079Z,8.30
2018-06-15T04:18:39.697Z,8.90
2018-06-15T04:21:08.346Z,11.00
2018-06-15T04:23:36.939Z,10.07
2018-06-15T04:26:05.530Z,7.73
2018-06-15T04:28:33.753Z,10.70
2018-06-15T04:31:02.378Z,10.07
2018-06-15T04:33:31.065Z,8.93
2018-06-15T04:35:59.657Z,8.20
2018-06-15T04:38:28.571Z,8.07
2018-06-15T04:40:57.140Z,10.70
2018-06-15T04:43:25.362Z,8.20
2018-06-15T04:45:54.030Z,9.57
2018-06-15T04:48:22.653Z,11.07
2018-06-15T04:50:51.355Z,12.40
2018-06-15T04:53:19.963Z,11.57
2018-06-15T04:55:48.535Z,9.20
2018-06-15T04:58:17.314Z,14.80
2018-06-15T05:00:45.914Z,10.37
2018-06-15T05:03:14.948Z,10.20
2018-06-15T05:05:44.806Z,10.30
2018-06-15T05:08:13.450Z,10.10
2018-06-15T05:10:42.099Z,10.10
2018-06-15T05:13:10.808Z,8.90
2018-06-15T05:15:39.432Z,9.57
2018-06-15T05:18:08.004Z,9.53
2018-06-15T05:20:36.517Z,10.23
2018-06-15T05:23:05.153Z,16.87
2018-06-15T05:25:34.856Z,13.30
2018-06-15T05:28:03.455Z,8.23
2018-06-15T05:30:32.098Z,9.13
2018-06-15T05:33:00.665Z,8.53
2018-06-15T05:35:29.273Z,13.60
2018-06-15T05:37:57.885Z,8.80
2018-06-15T05:40:26.616Z,10.67
2018-06-15T05:42:55.262Z,10.50
2018-06-15T05:45:23.853Z,9.70
2018-06-15T05:47:52.419Z,8.13
2018-06-15T05:50:27.763Z,8.97
2018-06-15T05:52:56.393Z,12.53
2018-06-15T05:55:24.952Z,9.40
2018-06-15T05:57:53.554Z,9.83
2018-06-15T06:00:23.209Z,10.13
2018-06-15T06:02:51.809Z,9.30
2018-06-15T06:05:20.401Z,10.93
2018-06-15T06:07:48.958Z,14.27
2018-06-15T06:10:17.519Z,10.97
2018-06-15T06:12:46.082Z,12.80
2018-06-15T06:15:20.473Z,10.00
2018-06-15T06:17:51.268Z,10.27
2018-06-15T06:20:22.317Z,13.90
2018-06-15T06:22:52.916Z,12.50
2018-06-15T06:25:21.609Z,11.00
2018-06-15T06:27:50.225Z,10.30
2018-06-15T06:30:18.838Z,12.87
2018-06-15T06:32:47.483Z,9.47
2018-06-15T06:35:16.161Z,10.00
2018-06-15T06:37:44.800Z,14.43
2018-06-15T06:40:13.420Z,9.30
2018-06-15T06:42:41.685Z,11.40
2018-06-15T06:45:10.230Z,13.60
2018-06-15T06:47:38.764Z,14.93
2018-06-15T06:50:07.399Z,10.80
2018-06-15T06:52:36.038Z,11.20
2018-06-15T06:55:04.682Z,11.50
2018-06-15T06:57:33.278Z,10.47
2018-06-15T07:00:01.822Z,10.20
2018-06-15T07:02:30.422Z,11.13
2018-06-15T07:04:58.946Z,10.80
2018-06-15T07:07:27.685Z,10.90
2018-06-15T07:09:56.306Z,12.70
2018-06-15T07:12:24.908Z,13.30
2018-06-15T07:14:55.194Z,12.03
2018-06-15T07:17:24.102Z,12.10
2018-06-15T07:19:52.636Z,12.67
2018-06-15T07:22:21.560Z,11.87
2018-06-15T07:24:50.341Z,13.30
2018-06-15T07:27:19.162Z,13.13
2018-06-15T07:29:47.828Z,11.03
2018-06-15T07:32:16.439Z,11.63
2018-06-15T07:34:45.071Z,11.10
2018-06-15T07:37:13.699Z,12.07
2018-06-15T07:39:42.319Z,16.37
2018-06-15T07:42:10.960Z,13.07
2018-06-15T07:44:39.558Z,12.50
2018-06-15T07:47:08.130Z,13.40
2018-06-15T07:49:36.767Z,12.43
2018-06-15T07:52:05.399Z,17.93
2018-06-15T07:54:33.991Z,11.83
2018-06-15T07:57:02.648Z,12.73
2018-06-15T07:59:31.308Z,13.77
2018-06-15T08:01:59.975Z,14.17
2018-06-15T08:04:28.662Z,16.83
2018-06-15T08:06:57.267Z,12.17
2018-06-15T08:09:29.055Z,12.63
2018-06-15T08:11:57.688Z,10.90
2018-06-15T08:14:27.198Z,14.03
2018-06-15T08:16:55.820Z,13.70
2018-06-15T08:19:24.398Z,15.53
2018-06-15T08:21:53.100Z,12.77
2018-06-15T08:24:21.747Z,13.10
2018-06-15T08:26:50.367Z,16.43
2018-06-15T08:29:19.020Z,13.73
2018-06-15T08:31:47.575Z,12.23
2018-06-15T08:34:16.198Z,12.13
2018-06-15T08:36:44.830Z,10.80
2018-06-15T08:39:13.445Z,12.13
2018-06-15T08:41:41.986Z,12.93
2018-06-15T08:44:10.658Z,10.23
2018-06-15T08:46:39.470Z,10.27
2018-06-15T08:49:08.214Z,14.40
2018-06-15T08:51:36.834Z,10.67
2018-06-15T08:54:05.467Z,9.77
2018-06-15T08:56:34.051Z,10.80
2018-06-15T08:59:02.766Z,9.77
2018-06-15T09:01:31.410Z,9.20
2018-06-15T09:04:00.035Z,10.17
2018-06-15T09:06:28.614Z,10.90
2018-06-15T09:08:57.221Z,12.27
2018-06-15T09:11:25.826Z,12.60
2018-06-15T09:13:54.395Z,12.90
2018-06-15T09:16:22.999Z,10.07
2018-06-15T09:18:51.594Z,11.83
2018-06-15T09:21:20.261Z,10.33
2018-06-15T09:23:49.247Z,10.77
2018-06-15T09:26:17.806Z,9.90
2018-06-15T09:28:46.431Z,9.20
2018-06-15T09:31:15.016Z,10.17
2018-06-15T09:33:43.646Z,10.37
2018-06-15T09:36:12.327Z,9.73
2018-06-15T09:38:40.896Z,11.93
2018-06-15T09:41:09.488Z,9.90
2018-06-15T09:43:38.112Z,9.17
2018-06-15T09:46:06.759Z,8.20
2018-06-15T09:48:35.253Z,10.77
2018-06-15T09:51:03.934Z,10.23
2018-06-15T09:53:36.107Z,9.20
2018-06-15T09:56:05.050Z,9.37
2018-06-15T09:58:33.606Z,10.43
2018-06-15T10:01:07.474Z,9.30
2018-06-15T10:03:36.448Z,8.90
2018-06-15T10:06:05.234Z,11.37
2018-06-15T10:08:34.341Z,10.27
2018-06-15T10:11:02.993Z,8.97
2018-06-15T10:13:31.626Z,10.03
2018-06-15T10:16:03.748Z,8.77
2018-06-15T10:18:36.408Z,9.63
2018-06-15T10:21:10.260Z,9.80
2018-06-15T10:23:46.565Z,10.20
2018-06-15T10:26:15.300Z,8.37
2018-06-15T10:28:43.912Z,9.10
2018-06-15T10:31:12.483Z,8.80
2018-06-15T10:36:46.493Z,8.83
2018-06-15T10:39:15.159Z,8.90
2018-06-15T10:41:43.711Z,9.73
2018-06-15T10:44:12.392Z,9.10
2018-06-15T10:46:41.086Z,8.20
2018-06-15T10:49:09.669Z,8.70
2018-06-15T10:51:39.275Z,9.23
2018-06-15T10:54:07.838Z,8.20
2018-06-15T10:56:36.483Z,8.80
2018-06-15T10:59:05.086Z,7.60
2018-06-15T11:01:33.728Z,8.43
2018-06-15T11:04:02.371Z,7.90
2018-06-15T11:06:31.034Z,7.03
2018-06-15T11:09:00.788Z,8.40
2018-06-15T11:11:29.375Z,7.57
2018-06-15T11:13:57.974Z,8.07
2018-06-15T11:16:26.604Z,7.10
2018-06-15T11:18:55.301Z,7.03
2018-06-15T11:21:23.950Z,7.53
2018-06-15T11:23:52.593Z,6.93
2018-06-15T11:26:21.286Z,7.47
2018-06-15T11:28:49.918Z,8.13
2018-06-15T11:31:18.623Z,7.83
2018-06-15T11:33:47.248Z,7.63
2018-06-15T11:36:15.993Z,7.73
2018-06-15T11:38:44.556Z,7.33
2018-06-15T11:41:13.163Z,7.30
2018-06-15T11:43:41.733Z,7.80
2018-06-15T11:46:10.834Z,7.77
2018-06-15T11:48:39.458Z,6.90
2018-06-15T11:51:08.093Z,7.30
2018-06-15T11:53:37.743Z,7.30
2018-06-15T11:56:06.362Z,7.10
2018-06-15T11:58:34.952Z,6.83
2018-06-15T12:01:03.584Z,7.33
2018-06-15T12:03:32.210Z,7.23
2018-06-15T12:06:00.800Z,7.93
2018-06-15T12:08:29.403Z,7.60
2018-06-15T12:10:57.983Z,7.57
2018-06-15T12:13:26.619Z,7.40
2018-06-15T12:15:56.230Z,7.27
2018-06-15T12:18:24.827Z,7.07
2018-06-15T12:20:55.755Z,8.20
2018-06-15T12:23:24.358Z,7.67
2018-06-15T12:25:55.009Z,7.90
2018-06-15T12:28:24.718Z,7.13
2018-06-15T12:30:53.424Z,8.00
2018-06-15T12:33:22.038Z,7.83
2018-06-15T12:35:50.285Z,7.60
2018-06-15T12:38:18.862Z,9.90
2018-06-15T12:40:47.494Z,8.53
2018-06-15T12:43:16.069Z,8.20
2018-06-15T12:45:44.669Z,8.23
2018-06-15T12:48:13.287Z,8.60
2018-06-15T12:50:42.016Z,7.77
2018-06-15T12:53:10.630Z,8.63
2018-06-15T12:55:39.223Z,7.73
2018-06-15T12:58:07.898Z,7.67
2018-06-15T13:00:36.483Z,8.90
2018-06-15T13:03:05.107Z,7.77
2018-06-15T13:05:33.734Z,8.00
2018-06-15T13:08:02.328Z,7.50
2018-06-15T13:10:30.972Z,7.30
2018-06-15T13:13:00.815Z,7.70
2018-06-15T13:15:29.472Z,7.43
2018-06-15T13:17:58.241Z,8.00
2018-06-15T13:20:27.791Z,8.37
2018-06-15T13:22:56.528Z,7.83
2018-06-15T13:25:25.200Z,9.93
2018-06-15T13:27:53.822Z,7.10
2018-06-15T13:30:22.464Z,9.20
2018-06-15T13:32:51.152Z,7.50
2018-06-15T13:35:21.902Z,7.80
2018-06-15T13:37:50.516Z,8.07
2018-06-15T13:40:19.092Z,8.63
2018-06-15T13:42:48.773Z,9.40
2018-06-15T13:45:17.411Z,8.83
2018-06-15T13:47:45.995Z,8.87
2018-06-15T13:50:15.322Z,8.47
2018-06-15T13:52:44.105Z,8.83
2018-06-15T13:55:13.717Z,8.17
2018-06-15T13:57:42.362Z,8.63
2018-06-15T14:00:11.042Z,8.30
2018-06-15T14:02:39.643Z,8.30
2018-06-15T14:05:08.246Z,8.70
2018-06-15T14:07:36.872Z,8.77
2018-06-15T14:10:05.635Z,7.50
2018-06-15T14:12:35.291Z,8.60
2018-06-15T14:15:04.110Z,8.60
2018-06-15T14:17:32.918Z,6.77
2018-06-15T14:20:01.580Z,8.03
2018-06-15T14:22:30.242Z,7.87
2018-06-15T14:24:58.856Z,8.00
2018-06-15T14:27:28.520Z,10.53
2018-06-15T14:29:59.317Z,8.00
2018-06-15T14:32:27.934Z,7.70
2018-06-15T14:34:57.664Z,7.13
2018-06-15T14:37:26.298Z,8.10
2018-06-15T14:39:54.886Z,7.10
2018-06-15T14:42:23.594Z,6.93
2018-06-15T14:44:52.210Z,7.77
2018-06-15T14:47:22.869Z,7.87
2018-06-15T14:49:52.612Z,8.20
2018-06-15T14:52:21.261Z,8.33
2018-06-15T14:54:50.011Z,8.57
2018-06-15T14:57:18.622Z,8.10
2018-06-15T14:59:47.244Z,8.10
2018-06-15T15:02:15.857Z,7.93
2018-06-15T15:04:44.544Z,9.40
2018-06-15T15:07:13.247Z,10.63
2018-06-15T15:09:41.808Z,8.07
2018-06-15T15:12:10.460Z,8.20
2018-06-15T15:14:39.051Z,9.60
2018-06-15T15:17:07.629Z,7.60
2018-06-15T15:19:36.292Z,7.37
2018-06-15T15:22:04.920Z,8.00
2018-06-15T15:24:34.608Z,7.33
2018-06-15T15:27:04.213Z,8.43
2018-06-15T15:29:33.812Z,8.17
2018-06-15T15:32:02.523Z,7.60
2018-06-15T15:34:31.263Z,7.80
2018-06-15T15:37:00.284Z,6.83
2018-06-15T15:39:28.961Z,6.73
2018-06-15T15:41:57.523Z,6.70
2018-06-15T15:44:25.810Z,7.60
2018-06-15T15:46:55.087Z,7.83
2018-06-15T15:49:23.797Z,7.77
2018-06-15T15:51:52.398Z,7.20
2018-06-15T15:54:22.005Z,7.37
2018-06-15T15:56:50.732Z,7.67
2018-06-15T15:59:19.384Z,8.10
2018-06-15T16:01:47.962Z,7.93
2018-06-15T16:04:18.625Z,11.00
2018-06-15T16:06:47.224Z,7.77
2018-06-15T16:09:15.793Z,7.97
2018-06-15T16:11:44.459Z,9.23
2018-06-15T16:14:13.171Z,9.80
2018-06-15T16:16:41.769Z,8.10
2018-06-15T16:19:10.404Z,7.83
2018-06-15T16:21:39.179Z,7.90
2018-06-15T16:24:07.848Z,8.10
2018-06-15T16:26:36.500Z,8.40
2018-06-15T16:29:05.141Z,8.30
2018-06-15T16:31:33.815Z,9.70
2018-06-15T16:34:02.509Z,9.13
2018-06-15T16:36:31.118Z,14.97
2018-06-15T16:38:59.752Z,8.60
2018-06-15T16:41:28.105Z,7.10
2018-06-15T16:43:56.738Z,7.97
2018-06-15T16:46:25.286Z,6.90
2018-06-15T16:48:53.949Z,7.07
2018-06-15T16:51:22.675Z,6.60
2018-06-15T16:53:51.311Z,6.03
2018-06-15T16:56:19.894Z,7.63
2018-06-15T16:58:48.454Z,7.37
2018-06-15T17:01:17.046Z,6.60
2018-06-15T17:03:45.615Z,6.23
2018-06-15T17:06:14.170Z,6.60
2018-06-15T17:08:42.684Z,6.00
2018-06-15T17:11:11.357Z,5.90
2018-06-15T17:13:39.871Z,6.00
2018-06-15T17:16:08.530Z,6.33
2018-06-15T17:18:37.182Z,5.00
2018-06-15T17:21:06.903Z,6.40
2018-06-15T17:23:35.524Z,5.93
2018-06-15T17:26:04.234Z,6.40
2018-06-15T17:28:32.840Z,5.73
2018-06-15T17:31:01.435Z,5.43
2018-06-15T17:33:29.996Z,5.97
2018-06-15T17:35:58.626Z,6.10
2018-06-15T17:38:27.171Z,6.47
2018-06-15T17:40:55.811Z,5.97
2018-06-15T17:43:24.361Z,6.00
2018-06-15T17:45:52.972Z,5.30
2018-06-15T17:48:21.672Z,5.77
2018-06-15T17:50:50.392Z,6.40
2018-06-15T17:53:19.137Z,5.77
2018-06-15T17:55:47.779Z,6.53
2018-06-15T17:58:16.375Z,6.63
2018-06-15T18:00:45.133Z,6.70
2018-06-15T18:03:13.714Z,6.60
2018-06-15T18:05:42.298Z,6.80
2018-06-15T18:08:10.921Z,6.10
2018-06-15T18:10:39.618Z,7.23
2018-06-15T18:13:08.246Z,6.80
2018-06-15T18:15:36.783Z,7.17
2018-06-15T18:18:05.421Z,7.00
2018-06-15T18:20:34.042Z,7.30
2018-06-15T18:23:02.334Z,7.93
2018-06-15T18:25:30.905Z,7.70
2018-06-15T18:27:59.144Z,6.87
2018-06-15T18:30:27.803Z,7.10
2018-06-15T18:32:56.461Z,7.37
2018-06-15T18:35:25.233Z,8.27
2018-06-15T18:37:53.991Z,11.40
2018-06-15T18:40:22.698Z,8.70
2018-06-15T18:42:51.554Z,7.73
2018-06-15T18:45:20.231Z,7.63
2018-06-15T18:47:48.878Z,10.40
2018-06-15T18:50:17.422Z,9.47
2018-06-15T18:52:46.077Z,8.20
2018-06-15T18:55:14.697Z,9.10
2018-06-15T18:57:43.390Z,8.80
2018-06-15T19:00:12.055Z,8.67
2018-06-15T19:02:40.890Z,8.80
2018-06-15T19:05:09.634Z,9.77
2018-06-15T19:07:38.256Z,14.87
2018-06-15T19:10:06.844Z,9.70
2018-06-15T19:12:35.527Z,9.63
2018-06-15T19:15:04.687Z,11.90
2018-06-15T19:17:33.286Z,9.37
2018-06-15T19:20:01.918Z,9.67
2018-06-15T19:22:30.602Z,9.53
2018-06-15T19:24:59.259Z,9.00
2018-06-15T19:27:27.566Z,9.50
2018-06-15T19:29:56.291Z,10.20
2018-06-15T19:32:24.932Z,11.13
2018-06-15T19:34:53.471Z,9.13
2018-06-15T19:37:22.097Z,9.13
2018-06-15T19:39:50.701Z,11.60
2018-06-15T19:42:19.402Z,10.33
2018-06-15T19:44:48.127Z,10.10
2018-06-15T19:47:18.817Z,10.00
2018-06-15T19:49:47.388Z,9.67
2018-06-15T19:52:15.997Z,9.87
2018-06-15T19:54:44.590Z,11.40
2018-06-15T19:57:13.266Z,10.93
2018-06-15T19:59:41.855Z,10.27
2018-06-15T20:02:10.542Z,11.30
2018-06-15T20:04:39.159Z,10.93
2018-06-15T20:07:08.580Z,10.23
2018-06-15T20:09:37.211Z,11.40
2018-06-15T20:12:06.125Z,11.60
2018-06-15T20:14:34.811Z,11.90
2018-06-15T20:17:03.415Z,15.93
2018-06-15T20:19:31.723Z,12.00
2018-06-15T20:22:00.618Z,11.20
2018-06-15T20:24:29.236Z,10.53
2018-06-15T20:26:57.862Z,13.10
2018-06-15T20:29:26.506Z,10.23
2018-06-15T20:31:55.190Z,9.07
2018-06-15T20:34:23.836Z,9.87
2018-06-15T20:36:52.400Z,11.00
2018-06-15T20:39:20.992Z,11.00
2018-06-15T20:41:49.718Z,10.17
2018-06-15T20:44:18.278Z,11.17
2018-06-15T20:46:46.913Z,10.13
2018-06-15T20:49:15.459Z,10.77
2018-06-15T20:51:44.018Z,11.00
2018-06-15T20:54:12.670Z,11.70
2018-06-15T20:56:41.272Z,12.67
2018-06-15T20:59:09.846Z,11.40
2018-06-15T21:01:38.480Z,11.90
2018-06-15T21:04:07.123Z,10.40
2018-06-15T21:06:35.740Z,14.33
2018-06-15T21:09:06.169Z,11.00
2018-06-15T21:11:34.778Z,11.03
2018-06-15T21:14:03.673Z,11.00
2018-06-15T21:16:32.268Z,11.20
2018-06-15T21:19:00.863Z,10.90
2018-06-15T21:21:29.445Z,11.90
2018-06-15T21:23:58.113Z,13.17
2018-06-15T21:26:26.741Z,11.73
2018-06-15T21:28:55.353Z,12.27
2018-06-15T21:31:23.914Z,11.30
2018-06-15T21:33:52.558Z,13.80
2018-06-15T21:36:21.149Z,13.30
2018-06-15T21:38:49.811Z,12.17
2018-06-15T21:41:18.305Z,12.67
2018-06-15T21:43:46.856Z,13.23
2018-06-15T21:46:15.462Z,13.70
2018-06-15T21:48:44.043Z,11.00
2018-06-15T21:51:12.599Z,9.40
2018-06-15T21:53:41.215Z,11.67
2018-06-15T21:56:09.826Z,13.63
2018-06-15T21:58:38.502Z,10.70
2018-06-15T22:01:06.818Z,12.90
2018-06-15T22:03:35.459Z,15.53
2018-06-15T22:06:03.758Z,12.30
2018-06-15T22:08:32.444Z,14.87
2018-06-15T22:11:01.111Z,13.07
2018-06-15T22:13:29.700Z,10.87
2018-06-15T22:15:58.502Z,9.23
2018-06-15T22:18:27.110Z,11.20
2018-06-15T22:20:55.698Z,10.30
2018-06-15T22:23:24.360Z,13.63
2018-06-15T22:25:53.097Z,9.73
2018-06-15T22:28:21.712Z,9.43
2018-06-15T22:30:50.306Z,11.80
2018-06-15T22:33:18.888Z,9.67
2018-06-15T22:35:47.598Z,9.43
2018-06-15T22:38:16.123Z,11.20
2018-06-15T22:40:44.734Z,8.97
2018-06-15T22:43:13.321Z,11.70
2018-06-15T22:45:41.968Z,9.90
2018-06-15T22:48:10.591Z,9.23
2018-06-15T22:50:39.214Z,11.70
2018-06-15T22:53:07.849Z,13.37
2018-06-15T22:55:36.511Z,9.03
2018-06-15T22:58:05.164Z,7.90
2018-06-15T23:00:33.784Z,8.83
2018-06-15T23:03:02.325Z,8.03
2018-06-15T23:05:30.941Z,8.90
2018-06-15T23:07:59.506Z,10.20
2018-06-15T23:10:28.069Z,7.53
2018-06-15T23:12:56.681Z,8.90
2018-06-15T23:15:25.426Z,11.40
2018-06-15T23:17:53.989Z,9.97
2018-06-15T23:20:22.621Z,10.70
2018-06-15T23:22:51.230Z,8.57
2018-06-15T23:25:19.881Z,8.40
2018-06-15T23:27:48.466Z,9.50
2018-06-15T23:30:18.086Z,9.60
2018-06-15T23:32:46.666Z,8.07
2018-06-15T23:35:15.199Z,8.63
2018-06-15T23:37:43.839Z,10.73
2018-06-15T23:40:12.431Z,8.10
2018-06-15T23:42:41.138Z,10.13
2018-06-15T23:45:09.772Z,8.20
2018-06-15T23:47:38.416Z,9.90
2018-06-15T23:50:07.474Z,11.13
2018-06-15T23:52:36.051Z,9.10
2018-06-15T23:55:04.982Z,8.97
2018-06-15T23:57:33.633Z,8.43
